createdAt,value
2019-03-30T00:03:52.784Z,99.90
2019-03-30T00:06:33.688Z,99.90
2019-03-30T00:09:14.621Z,99.90
2019-03-30T00:11:57.849Z,99.90
2019-03-30T00:14:38.022Z,99.90
2019-03-30T00:20:00.442Z,99.90
2019-03-30T00:22:41.723Z,99.90
2019-03-30T00:25:22.315Z,99.90
2019-03-30T00:28:02.755Z,99.90
2019-03-30T00:30:43.324Z,99.90
2019-03-30T00:33:24.936Z,99.90
2019-03-30T00:36:06.110Z,99.90
2019-03-30T00:38:35.509Z,99.90
2019-03-30T00:41:05.327Z,99.90
2019-03-30T00:43:34.702Z,99.90
2019-03-30T00:46:03.955Z,99.90
2019-03-30T00:48:33.303Z,99.90
2019-03-30T00:51:02.502Z,99.90
2019-03-30T00:53:31.858Z,99.90
2019-03-30T00:56:01.103Z,99.90
2019-03-30T00:58:30.479Z,99.90
2019-03-30T01:01:00.232Z,99.90
2019-03-30T01:03:29.616Z,99.90
2019-03-30T01:05:58.850Z,99.90
2019-03-30T01:08:28.158Z,99.90
2019-03-30T01:10:57.521Z,99.90
2019-03-30T01:13:26.775Z,99.90
2019-03-30T01:15:56.075Z,99.90
2019-03-30T01:18:25.320Z,99.90
2019-03-30T01:20:54.539Z,99.90
2019-03-30T01:23:23.830Z,99.90
2019-03-30T01:25:53.082Z,99.90
2019-03-30T01:28:22.439Z,99.90
2019-03-30T01:30:51.658Z,99.90
2019-03-30T01:33:20.885Z,99.90
2019-03-30T01:35:50.149Z,99.90
2019-03-30T01:38:19.775Z,99.90
2019-03-30T01:40:49.019Z,99.90
2019-03-30T01:43:18.302Z,99.90
2019-03-30T01:45:47.532Z,99.90
2019-03-30T01:48:16.823Z,99.90
2019-03-30T01:50:46.091Z,99.90
2019-03-30T01:53:15.353Z,99.90
2019-03-30T01:55:44.599Z,99.90
2019-03-30T01:58:13.819Z,99.90
2019-03-30T02:00:43.146Z,99.90
2019-03-30T02:03:12.375Z,99.90
2019-03-30T02:05:41.615Z,99.90
2019-03-30T02:08:10.858Z,99.90
2019-03-30T02:10:41.797Z,99.90
2019-03-30T02:13:11.084Z,99.90
2019-03-30T02:15:40.393Z,99.90
2019-03-30T02:18:09.632Z,99.90
2019-03-30T02:20:43.230Z,99.90
2019-03-30T02:23:12.508Z,99.90
2019-03-30T02:25:41.775Z,99.90
2019-03-30T02:28:11.384Z,99.90
2019-03-30T02:30:40.752Z,99.90
2019-03-30T02:33:10.177Z,99.90
2019-03-30T02:35:39.490Z,99.90
2019-03-30T02:38:08.738Z,99.90
2019-03-30T02:40:38.077Z,99.90
2019-03-30T02:43:07.325Z,99.90
2019-03-30T02:45:36.662Z,99.90
2019-03-30T02:48:05.960Z,99.90
2019-03-30T02:50:48.365Z,99.90
2019-03-30T02:53:06.283Z,99.90
2019-03-30T02:55:35.590Z,99.90
2019-03-30T02:58:04.815Z,99.90
2019-03-30T03:00:34.430Z,99.90
2019-03-30T03:03:03.936Z,99.90
2019-03-30T03:05:33.210Z,99.90
2019-03-30T03:08:02.448Z,99.90
2019-03-30T03:10:31.738Z,99.90
2019-03-30T03:13:01.131Z,99.90
2019-03-30T03:15:30.349Z,99.90
2019-03-30T03:17:59.670Z,99.90
2019-03-30T03:20:28.921Z,99.90
2019-03-30T03:22:58.260Z,99.90
2019-03-30T03:25:27.604Z,99.90
2019-03-30T03:27:56.893Z,99.90
2019-03-30T03:30:26.211Z,99.90
2019-03-30T03:32:55.472Z,99.90
2019-03-30T03:35:24.783Z,99.90
2019-03-30T03:37:54.053Z,99.90
2019-03-30T03:40:23.400Z,99.90
2019-03-30T03:42:52.722Z,99.90
2019-03-30T03:45:22.084Z,99.90
2019-03-30T03:47:51.547Z,99.90
2019-03-30T03:50:42.043Z,99.90
2019-03-30T03:53:12.722Z,99.90
2019-03-30T03:55:41.993Z,99.90
2019-03-30T03:58:11.841Z,99.90
2019-03-30T04:00:41.218Z,99.90
2019-03-30T04:03:11.343Z,99.90
2019-03-30T04:05:41.875Z,99.90
2019-03-30T04:08:11.616Z,99.90
2019-03-30T04:10:40.952Z,99.90
2019-03-30T04:13:10.236Z,99.90
2019-03-30T04:15:39.454Z,99.90
2019-03-30T04:18:08.766Z,99.90
2019-03-30T04:20:38.100Z,99.90
2019-03-30T04:23:07.386Z,99.90
2019-03-30T04:25:36.922Z,99.90
2019-03-30T04:28:06.320Z,99.90
2019-03-30T04:30:35.646Z,99.90
2019-03-30T04:33:04.939Z,99.90
2019-03-30T04:35:34.284Z,99.90
2019-03-30T04:38:03.539Z,99.90
2019-03-30T04:40:32.838Z,99.90
2019-03-30T04:43:02.047Z,99.90
2019-03-30T04:45:31.283Z,99.90
2019-03-30T04:48:00.622Z,99.90
2019-03-30T04:50:29.914Z,99.90
2019-03-30T04:52:59.124Z,99.90
2019-03-30T04:55:28.447Z,99.90
2019-03-30T04:57:58.071Z,99.90
2019-03-30T05:00:27.345Z,99.90
2019-03-30T05:02:56.612Z,99.90
2019-03-30T05:05:25.843Z,99.90
2019-03-30T05:07:55.186Z,99.90
2019-03-30T05:10:24.561Z,99.90
2019-03-30T05:12:53.847Z,99.90
2019-03-30T05:15:23.097Z,99.90
2019-03-30T05:17:52.362Z,99.90
2019-03-30T05:20:21.641Z,99.90
2019-03-30T05:22:51.470Z,99.90
2019-03-30T05:25:20.873Z,99.90
2019-03-30T05:27:50.109Z,99.90
2019-03-30T05:30:19.364Z,99.90
2019-03-30T05:32:48.642Z,99.90
2019-03-30T05:35:17.906Z,99.90
2019-03-30T05:37:47.240Z,99.90
2019-03-30T05:40:16.600Z,99.90
2019-03-30T05:42:45.912Z,99.90
2019-03-30T05:45:15.186Z,99.90
2019-03-30T05:47:44.455Z,99.90
2019-03-30T05:50:13.716Z,99.90
2019-03-30T05:52:42.961Z,99.90
2019-03-30T05:55:12.238Z,99.90
2019-03-30T05:57:41.468Z,99.90
2019-03-30T06:00:12.600Z,99.90
2019-03-30T06:02:41.965Z,99.90
2019-03-30T06:05:11.202Z,99.90
2019-03-30T06:07:40.485Z,99.90
2019-03-30T06:10:10.866Z,99.90
2019-03-30T06:12:40.255Z,99.90
2019-03-30T06:15:09.542Z,99.90
2019-03-30T06:17:38.741Z,99.90
2019-03-30T06:20:08.506Z,99.90
2019-03-30T06:22:56.844Z,99.90
2019-03-30T06:25:26.093Z,99.90
2019-03-30T06:27:55.338Z,99.90
2019-03-30T06:30:25.890Z,99.90
2019-03-30T06:32:55.162Z,99.90
2019-03-30T06:35:24.433Z,99.90
2019-03-30T06:37:53.679Z,99.90
2019-03-30T06:40:22.921Z,99.90
2019-03-30T06:42:52.215Z,99.90
2019-03-30T06:45:21.470Z,99.90
2019-03-30T06:47:50.798Z,99.90
2019-03-30T06:50:20.262Z,99.90
2019-03-30T06:52:57.290Z,99.90
2019-03-30T06:55:20.568Z,99.90
2019-03-30T06:57:49.870Z,99.90
2019-03-30T07:00:23.502Z,99.90
2019-03-30T07:02:52.752Z,99.90
2019-03-30T07:05:21.979Z,99.90
2019-03-30T07:07:51.213Z,99.90
2019-03-30T07:10:20.515Z,99.90
2019-03-30T07:12:49.872Z,99.90
2019-03-30T07:15:19.121Z,99.90
2019-03-30T07:17:48.445Z,99.90
2019-03-30T07:20:27.507Z,99.90
2019-03-30T07:23:10.706Z,99.90
2019-03-30T07:25:28.176Z,99.90
2019-03-30T07:27:57.535Z,99.90
2019-03-30T07:30:26.874Z,99.90
2019-03-30T07:32:56.137Z,99.90
2019-03-30T07:35:25.385Z,99.90
2019-03-30T07:37:54.660Z,99.90
2019-03-30T07:40:23.972Z,99.90
2019-03-30T07:42:53.236Z,99.90
2019-03-30T07:45:22.474Z,99.90
2019-03-30T07:47:51.683Z,99.90
2019-03-30T07:50:21.039Z,99.90
2019-03-30T07:52:50.290Z,99.90
2019-03-30T07:55:19.588Z,99.90
2019-03-30T07:57:48.891Z,99.90
2019-03-30T08:00:18.310Z,99.90
2019-03-30T08:02:47.647Z,99.90
2019-03-30T08:05:17.424Z,99.90
2019-03-30T08:07:46.894Z,99.90
2019-03-30T08:10:16.234Z,99.90
2019-03-30T08:12:45.724Z,99.90
2019-03-30T08:15:17.343Z,99.90
2019-03-30T08:17:59.471Z,99.90
2019-03-30T08:20:28.896Z,99.90
2019-03-30T08:22:58.316Z,99.90
2019-03-30T08:25:27.662Z,99.90
2019-03-30T08:27:56.917Z,99.90
2019-03-30T08:30:26.166Z,99.90
2019-03-30T08:32:55.426Z,99.90
2019-03-30T08:35:24.768Z,99.90
2019-03-30T08:37:54.046Z,99.90
2019-03-30T08:40:23.314Z,99.90
2019-03-30T08:42:52.601Z,99.90
2019-03-30T08:45:21.878Z,99.90
2019-03-30T08:47:51.248Z,99.90
2019-03-30T08:50:20.549Z,99.90
2019-03-30T08:52:49.813Z,99.90
2019-03-30T08:55:19.064Z,99.90
2019-03-30T08:57:48.316Z,99.90
2019-03-30T09:00:32.408Z,99.90
2019-03-30T09:03:01.659Z,99.90
2019-03-30T09:05:30.958Z,99.90
2019-03-30T09:08:00.239Z,99.90
2019-03-30T09:10:29.564Z,99.90
2019-03-30T09:12:58.839Z,99.90
2019-03-30T09:15:28.113Z,99.90
2019-03-30T09:17:57.453Z,99.90
2019-03-30T09:20:26.722Z,99.90
2019-03-30T09:22:56.042Z,99.90
2019-03-30T09:25:25.289Z,99.90
2019-03-30T09:27:54.542Z,99.90
2019-03-30T09:30:23.882Z,99.90
2019-03-30T09:32:53.191Z,99.90
2019-03-30T09:35:22.454Z,99.90
2019-03-30T09:37:51.703Z,99.90
2019-03-30T09:40:21.078Z,99.90
2019-03-30T09:42:50.417Z,99.90
2019-03-30T09:45:19.662Z,99.90
2019-03-30T09:47:49.029Z,99.90
2019-03-30T09:50:18.258Z,99.90
2019-03-30T09:52:47.516Z,99.90
2019-03-30T09:55:16.750Z,99.90
2019-03-30T09:57:45.986Z,99.90
2019-03-30T10:00:15.265Z,99.90
2019-03-30T10:02:44.535Z,99.90
2019-03-30T10:05:13.878Z,99.90
2019-03-30T10:07:43.473Z,99.90
2019-03-30T10:10:12.728Z,99.90
2019-03-30T10:12:42.032Z,99.90
2019-03-30T10:15:11.393Z,99.90
2019-03-30T10:17:40.661Z,99.90
2019-03-30T10:20:09.981Z,99.90
2019-03-30T10:22:42.155Z,99.90
2019-03-30T10:25:10.885Z,99.90
2019-03-30T10:27:40.195Z,99.90
2019-03-30T10:30:09.563Z,99.90
2019-03-30T10:32:38.823Z,99.90
2019-03-30T10:35:08.670Z,99.90
2019-03-30T10:37:38.082Z,99.90
2019-03-30T10:40:08.078Z,99.90
2019-03-30T10:42:37.500Z,99.90
2019-03-30T10:45:07.366Z,99.90
2019-03-30T10:47:36.615Z,99.90
2019-03-30T10:50:06.652Z,99.90
2019-03-30T10:52:35.945Z,99.90
2019-03-30T10:55:05.566Z,99.90
2019-03-30T10:57:34.854Z,99.90
2019-03-30T11:00:04.122Z,99.90
2019-03-30T11:02:33.343Z,99.90
2019-03-30T11:05:02.603Z,99.90
2019-03-30T11:07:32.013Z,99.90
2019-03-30T11:10:01.317Z,99.90
2019-03-30T11:12:30.582Z,99.90
2019-03-30T11:14:59.858Z,99.90
2019-03-30T11:17:29.128Z,99.90
2019-03-30T11:19:58.487Z,99.90
2019-03-30T11:22:27.819Z,99.90
2019-03-30T11:25:07.473Z,99.90
2019-03-30T11:27:28.127Z,99.90
2019-03-30T11:29:57.912Z,99.90
2019-03-30T11:32:27.292Z,99.90
2019-03-30T11:34:56.556Z,99.90
2019-03-30T11:37:25.957Z,99.90
2019-03-30T11:39:55.222Z,99.90
2019-03-30T11:42:24.521Z,99.90
2019-03-30T11:44:53.888Z,99.90
2019-03-30T11:47:23.234Z,99.90
2019-03-30T11:49:52.530Z,99.90
2019-03-30T11:52:21.836Z,99.90
2019-03-30T11:54:51.137Z,99.90
2019-03-30T11:57:20.339Z,99.90
2019-03-30T11:59:49.614Z,99.90
2019-03-30T12:02:27.921Z,99.90
2019-03-30T12:04:49.881Z,99.90
2019-03-30T12:07:19.201Z,99.30
2019-03-30T12:09:48.499Z,98.70
2019-03-30T12:12:17.770Z,99.20
2019-03-30T12:14:47.011Z,98.90
2019-03-30T12:17:16.272Z,98.60
2019-03-30T12:19:45.563Z,98.00
2019-03-30T12:22:14.848Z,97.00
2019-03-30T12:24:44.188Z,96.40
2019-03-30T12:27:13.505Z,96.90
2019-03-30T12:29:44.501Z,97.50
2019-03-30T12:32:13.765Z,98.10
2019-03-30T12:34:43.008Z,98.40
2019-03-30T12:37:12.285Z,98.30
2019-03-30T12:39:41.626Z,97.90
2019-03-30T12:42:10.911Z,97.60
2019-03-30T12:44:40.181Z,97.30
2019-03-30T12:47:10.454Z,96.60
2019-03-30T12:49:39.872Z,96.00
2019-03-30T12:52:09.191Z,95.90
2019-03-30T12:54:38.541Z,96.10
2019-03-30T12:57:07.814Z,95.70
2019-03-30T12:59:37.144Z,96.00
2019-03-30T13:02:06.518Z,95.00
2019-03-30T13:04:35.955Z,95.20
2019-03-30T13:07:05.316Z,95.10
2019-03-30T13:09:34.951Z,95.00
2019-03-30T13:12:04.292Z,95.10
2019-03-30T13:14:33.737Z,94.60
2019-03-30T13:17:04.861Z,94.90
2019-03-30T13:19:34.128Z,95.20
2019-03-30T13:22:03.563Z,94.80
2019-03-30T13:24:32.850Z,94.50
2019-03-30T13:27:02.108Z,94.30
2019-03-30T13:29:31.482Z,94.50
2019-03-30T13:32:00.822Z,94.60
2019-03-30T13:34:30.113Z,94.80
2019-03-30T13:36:59.357Z,94.70
2019-03-30T13:39:28.618Z,94.80
2019-03-30T13:41:57.906Z,94.40
2019-03-30T13:44:27.178Z,94.70
2019-03-30T13:46:56.597Z,94.70
2019-03-30T13:49:25.893Z,95.10
2019-03-30T13:51:55.240Z,95.00
2019-03-30T13:54:24.636Z,95.30
2019-03-30T13:56:53.896Z,94.90
2019-03-30T13:59:23.168Z,95.10
2019-03-30T14:01:52.817Z,95.20
2019-03-30T14:04:22.093Z,95.60
2019-03-30T14:06:51.332Z,95.30
2019-03-30T14:09:22.007Z,95.30
2019-03-30T14:11:51.621Z,96.00
2019-03-30T14:14:23.623Z,96.30
2019-03-30T14:16:52.937Z,96.60
2019-03-30T14:19:23.780Z,96.70
2019-03-30T14:21:53.087Z,96.50
2019-03-30T14:24:22.363Z,96.50
2019-03-30T14:26:51.696Z,95.70
2019-03-30T14:29:20.994Z,96.10
2019-03-30T14:31:50.261Z,95.80
2019-03-30T14:34:19.534Z,95.90
2019-03-30T14:36:48.963Z,96.10
2019-03-30T14:39:18.278Z,95.70
2019-03-30T14:41:47.684Z,95.20
2019-03-30T14:44:17.045Z,94.70
2019-03-30T14:46:46.418Z,95.40
2019-03-30T14:49:15.730Z,94.60
2019-03-30T14:51:45.118Z,93.90
2019-03-30T14:54:14.443Z,94.10
2019-03-30T14:56:45.803Z,94.80
2019-03-30T14:59:14.728Z,94.70
2019-03-30T15:01:44.102Z,94.70
2019-03-30T15:04:13.420Z,94.60
2019-03-30T15:06:42.712Z,94.60
2019-03-30T15:09:11.979Z,95.10
2019-03-30T15:11:41.180Z,95.20
2019-03-30T15:14:10.465Z,95.20
2019-03-30T15:16:39.748Z,96.00
2019-03-30T15:19:09.054Z,95.50
2019-03-30T15:21:38.303Z,94.40
2019-03-30T15:24:07.527Z,94.80
2019-03-30T15:26:36.831Z,94.60
2019-03-30T15:29:06.138Z,94.30
2019-03-30T15:31:35.435Z,93.80
2019-03-30T15:34:04.711Z,92.80
2019-03-30T15:36:34.071Z,92.50
2019-03-30T15:39:04.727Z,92.10
2019-03-30T15:41:33.992Z,91.70
2019-03-30T15:44:03.641Z,91.60
2019-03-30T15:46:33.006Z,91.30
2019-03-30T15:49:02.371Z,91.20
2019-03-30T15:51:31.676Z,90.90
2019-03-30T15:54:00.918Z,91.30
2019-03-30T15:56:30.177Z,91.10
2019-03-30T15:58:59.487Z,91.00
2019-03-30T16:01:28.718Z,90.80
2019-03-30T16:03:58.105Z,91.10
2019-03-30T16:06:27.623Z,91.30
2019-03-30T16:08:56.915Z,90.90
2019-03-30T16:11:26.185Z,90.90
2019-03-30T16:13:55.480Z,91.30
2019-03-30T16:16:24.756Z,91.90
2019-03-30T16:18:54.169Z,92.10
2019-03-30T16:21:23.734Z,91.80
2019-03-30T16:23:53.011Z,92.00
2019-03-30T16:26:22.292Z,91.70
2019-03-30T16:28:51.536Z,91.70
2019-03-30T16:31:20.889Z,92.00
2019-03-30T16:33:50.198Z,92.00
2019-03-30T16:36:19.430Z,92.20
2019-03-30T16:38:48.782Z,92.30
2019-03-30T16:41:18.023Z,92.60
2019-03-30T16:43:47.271Z,92.70
2019-03-30T16:46:17.443Z,92.70
2019-03-30T16:48:46.868Z,93.00
2019-03-30T16:51:16.168Z,93.00
2019-03-30T16:53:47.292Z,93.00
2019-03-30T16:56:16.481Z,93.20
2019-03-30T16:58:45.779Z,93.40
2019-03-30T17:01:15.055Z,93.50
2019-03-30T17:03:44.353Z,94.00
2019-03-30T17:06:14.020Z,94.50
2019-03-30T17:08:43.265Z,94.70
2019-03-30T17:11:12.545Z,94.70
2019-03-30T17:13:42.185Z,95.10
2019-03-30T17:16:11.441Z,95.10
2019-03-30T17:18:40.731Z,95.30
2019-03-30T17:21:10.035Z,95.70
2019-03-30T17:23:39.349Z,95.90
2019-03-30T17:26:08.617Z,96.20
2019-03-30T17:28:37.914Z,96.50
2019-03-30T17:31:07.297Z,96.80
2019-03-30T17:33:36.678Z,97.00
2019-03-30T17:36:05.949Z,97.30
2019-03-30T17:38:35.218Z,97.60
2019-03-30T17:41:04.690Z,98.00
2019-03-30T17:43:34.061Z,98.80
2019-03-30T17:46:03.431Z,99.00
2019-03-30T17:48:33.054Z,99.30
2019-03-30T17:51:02.367Z,99.60
2019-03-30T17:53:31.690Z,99.90
2019-03-30T17:56:01.991Z,99.90
2019-03-30T17:58:31.859Z,99.90
2019-03-30T18:01:01.209Z,99.90
2019-03-30T18:03:30.468Z,99.90
2019-03-30T18:05:59.793Z,99.90
2019-03-30T18:08:29.044Z,99.90
2019-03-30T18:10:58.289Z,99.90
2019-03-30T18:13:27.637Z,99.90
2019-03-30T18:15:56.893Z,99.90
2019-03-30T18:18:26.223Z,99.90
2019-03-30T18:20:55.531Z,99.90
2019-03-30T18:23:24.861Z,99.90
2019-03-30T18:25:54.164Z,99.90
2019-03-30T18:28:27.254Z,99.90
2019-03-30T18:30:55.026Z,99.90
2019-03-30T18:33:24.401Z,99.90
2019-03-30T18:36:13.162Z,99.90
2019-03-30T18:39:09.363Z,99.90
2019-03-30T18:41:51.636Z,99.90
2019-03-30T18:44:39.924Z,99.90
2019-03-30T18:47:28.232Z,99.90
2019-03-30T18:50:17.106Z,99.90
2019-03-30T18:52:46.377Z,99.90
2019-03-30T18:55:34.792Z,99.90
2019-03-30T18:58:23.269Z,99.90
2019-03-30T19:01:11.562Z,99.90
2019-03-30T19:03:59.833Z,99.90
2019-03-30T19:06:40.410Z,99.90
2019-03-30T19:09:21.969Z,99.90
2019-03-30T19:12:02.719Z,99.90
2019-03-30T19:14:44.061Z,99.90
2019-03-30T19:17:25.313Z,99.90
2019-03-30T19:20:06.418Z,99.90
2019-03-30T19:22:47.145Z,99.90
2019-03-30T19:25:29.801Z,99.90
2019-03-30T19:28:10.982Z,99.90
2019-03-30T19:30:54.860Z,99.90
2019-03-30T19:33:36.218Z,99.90
2019-03-30T19:36:17.692Z,99.90
2019-03-30T19:38:58.488Z,99.90
2019-03-30T19:41:43.835Z,99.90
2019-03-30T19:44:26.958Z,99.90
2019-03-30T19:47:08.068Z,99.90
2019-03-30T19:49:37.313Z,99.90
2019-03-30T19:52:47.571Z,99.90
2019-03-30T19:55:57.828Z,99.90
2019-03-30T19:58:49.189Z,99.90
2019-03-30T20:01:37.446Z,99.90
2019-03-30T20:04:26.607Z,99.90
2019-03-30T20:07:08.372Z,99.90
2019-03-30T20:09:49.724Z,99.90
2019-03-30T20:12:31.090Z,99.90
2019-03-30T20:15:11.997Z,99.90
2019-03-30T20:17:52.841Z,99.90
2019-03-30T20:20:38.040Z,99.90
2019-03-30T20:23:19.336Z,99.90
2019-03-30T20:26:00.254Z,99.90
2019-03-30T20:28:41.278Z,99.90
2019-03-30T20:31:22.088Z,99.90
2019-03-30T20:33:51.347Z,99.90
2019-03-30T20:39:33.799Z,99.90
2019-03-30T20:42:22.055Z,99.90
2019-03-30T20:44:51.334Z,99.90
2019-03-30T20:47:58.636Z,99.90
2019-03-30T20:50:50.027Z,99.90
2019-03-30T20:53:41.322Z,99.90
2019-03-30T20:56:29.661Z,99.90
2019-03-30T20:59:17.984Z,99.90
2019-03-30T21:02:08.382Z,99.90
2019-03-30T21:04:59.150Z,99.90
2019-03-30T21:08:09.250Z,99.90
2019-03-30T21:11:37.061Z,99.90
2019-03-30T21:14:25.490Z,99.90
2019-03-30T21:17:15.774Z,99.90
2019-03-30T21:23:19.633Z,99.90
2019-03-30T21:26:07.905Z,99.90
2019-03-30T21:29:15.516Z,99.90
2019-03-30T21:35:18.758Z,99.90
2019-03-30T21:38:07.138Z,99.90
2019-03-30T21:40:55.457Z,99.90
2019-03-30T21:43:43.755Z,99.90
2019-03-30T21:46:32.042Z,99.90
2019-03-30T21:49:20.606Z,99.90
2019-03-30T21:52:09.087Z,99.90
2019-03-30T21:54:58.082Z,99.90
2019-03-30T21:57:47.511Z,99.90
2019-03-30T22:00:59.844Z,99.90
2019-03-30T22:03:47.321Z,99.90
2019-03-30T22:09:35.482Z,99.90
2019-03-30T22:12:16.886Z,99.90
2019-03-30T22:14:57.864Z,99.90
2019-03-30T22:17:38.854Z,99.90
2019-03-30T22:20:21.261Z,99.90
2019-03-30T22:23:02.987Z,99.90
2019-03-30T22:25:32.286Z,99.90
2019-03-30T22:31:14.388Z,99.90
2019-03-30T22:34:02.684Z,99.90
2019-03-30T22:36:31.920Z,99.90
2019-03-30T22:39:20.165Z,99.90
2019-03-30T22:42:08.423Z,99.90
2019-03-30T22:44:56.809Z,99.90
2019-03-30T22:47:45.077Z,99.90
2019-03-30T22:50:33.366Z,99.90
2019-03-30T22:53:21.846Z,99.90
2019-03-30T22:56:10.096Z,99.90
2019-03-30T22:58:58.437Z,99.90
2019-03-30T23:01:46.695Z,99.90
2019-03-30T23:07:30.919Z,99.90
2019-03-30T23:10:19.259Z,99.90
2019-03-30T23:12:59.639Z,99.90
2019-03-30T23:15:40.463Z,99.90
2019-03-30T23:18:21.702Z,99.90
2019-03-30T23:21:03.160Z,99.90
2019-03-30T23:23:43.821Z,99.90
2019-03-30T23:26:24.570Z,99.90
2019-03-30T23:29:05.384Z,99.90
2019-03-30T23:31:47.036Z,99.90
2019-03-30T23:34:28.385Z,99.90
2019-03-30T23:37:16.747Z,99.90
2019-03-30T23:40:24.327Z,99.90
2019-03-30T23:46:20.274Z,99.90
2019-03-30T23:51:56.941Z,99.90
2019-03-30T23:54:45.260Z,99.90
2019-03-30T23:57:33.621Z,99.90
